Time;durP1;ratioP1;P1;durP2;ratioP2;P2;SDS_P1;SDS_P2;PMS_P1;PMS_P2;Temp;Humidity;BMP_temperature;BMP_pressure;BME280_temperature;BME280_humidity;BME280_pressure;Samples;Min_cycle;Max_cycle;Signal;HPM_P1;HPM_P2
2023/10/26 00:02:13;;;;;;;0.40;0.40;;;;;;;8.04;100.00;98212.09;5018409;28;20045;-76
2023/10/26 00:04:38;;;;;;;0.35;0.35;;;;;;;8.14;100.00;98209.72;5018948;28;20030;-76
2023/10/26 00:07:05;;;;;;;0.43;0.43;;;;;;;8.24;100.00;98203.88;5034615;28;20434;-77
2023/10/26 00:09:31;;;;;;;0.40;0.40;;;;;;;8.32;100.00;98200.91;5018423;28;20038;-75
2023/10/26 00:11:56;;;;;;;0.40;0.40;;;;;;;8.44;100.00;98206.38;5001914;28;20033;-76
2023/10/26 00:14:22;;;;;;;0.40;0.40;;;;;;;8.55;100.00;98210.97;5001900;28;20059;-76
2023/10/26 00:16:48;;;;;;;0.43;0.43;;;;;;;8.59;100.00;98206.78;5001839;28;20468;-76
2023/10/26 00:19:13;;;;;;;0.50;0.50;;;;;;;8.62;100.00;98200.16;5018033;28;20041;-76
2023/10/26 00:21:40;;;;;;;0.30;0.30;;;;;;;8.65;100.00;98188.97;5018176;28;20098;-76
2023/10/26 00:24:07;;;;;;;0.40;0.40;;;;;;;8.70;100.00;98199.81;5002317;28;20041;-76
2023/10/26 00:26:33;;;;;;;0.40;0.40;;;;;;;8.70;100.00;98191.78;5002006;28;20104;-76
2023/10/26 00:28:58;;;;;;;0.40;0.40;;;;;;;8.67;100.00;98191.44;5017777;28;20491;-76
2023/10/26 00:31:24;;;;;;;0.40;0.40;;;;;;;8.65;100.00;98191.66;5033465;28;20034;-76
2023/10/26 00:33:50;;;;;;;0.40;0.40;;;;;;;8.63;100.00;98193.75;5001199;28;20025;-76
2023/10/26 00:36:15;;;;;;;0.40;0.40;;;;;;;8.65;100.00;98199.69;5017735;28;20037;-76
2023/10/26 00:38:41;;;;;;;0.40;0.40;;;;;;;8.65;100.00;98191.66;5017729;28;20048;-76
2023/10/26 00:41:06;;;;;;;0.35;0.35;;;;;;;8.61;100.00;98187.81;5017832;28;20483;-76
2023/10/26 00:43:32;;;;;;;0.40;0.40;;;;;;;8.61;100.00;98190.47;5033655;28;20044;-76
2023/10/26 00:45:58;;;;;;;0.40;0.40;;;;;;;8.62;100.00;98184.06;5033721;28;20056;-76
2023/10/26 00:48:24;;;;;;;0.40;0.40;;;;;;;8.63;100.00;98184.91;5017888;28;20064;-76
2023/10/26 00:50:50;;;;;;;0.40;0.40;;;;;;;8.63;100.00;98176.88;5033691;28;20405;-76
2023/10/26 00:53:18;;;;;;;0.40;0.40;;;;;;;8.72;100.00;98178.19;5033391;28;20103;-76
2023/10/26 00:55:46;;;;;;;0.40;0.40;;;;;;;8.78;100.00;98186.13;4985052;28;20040;-76
2023/10/26 00:58:12;;;;;;;0.50;0.50;;;;;;;8.80;100.00;98186.72;5033942;28;20025;-76
2023/10/26 01:00:38;;;;;;;0.40;0.40;;;;;;;8.83;100.00;98171.22;5033409;28;20066;-76
2023/10/26 01:03:04;;;;;;;0.32;0.32;;;;;;;8.79;100.00;98174.38;5033221;28;20140;-76
2023/10/26 01:05:29;;;;;;;0.40;0.40;;;;;;;8.82;100.00;98167.75;5017313;28;20041;-76
2023/10/26 01:07:55;;;;;;;0.40;0.40;;;;;;;8.87;100.00;98172.44;5017170;28;20041;-76
2023/10/26 01:10:20;;;;;;;0.40;0.40;;;;;;;8.90;100.00;98171.97;5017230;28;20072;-76
2023/10/26 01:12:46;;;;;;;0.40;0.40;;;;;;;8.93;100.00;98166.94;5033319;28;20029;-76
2023/10/26 01:15:12;;;;;;;0.40;0.40;;;;;;;9.00;100.00;98164.19;5000733;28;20034;-76
2023/10/26 01:17:37;;;;;;;0.40;0.40;;;;;;;9.04;100.00;98160.00;5000661;28;20034;-76
2023/10/26 01:20:05;;;;;;;0.40;0.40;;;;;;;9.10;100.00;98163.59;5033262;28;20034;-76
2023/10/26 01:22:32;;;;;;;0.40;0.40;;;;;;;9.15;100.00;98164.56;5017293;28;20435;-76
2023/10/26 01:24:58;;;;;;;0.40;0.40;;;;;;;9.20;100.00;98166.53;5016663;28;20037;-76
2023/10/26 01:27:23;;;;;;;0.40;0.40;;;;;;;9.23;100.00;98164.25;5016799;28;20037;-76
2023/10/26 01:29:49;;;;;;;0.40;0.40;;;;;;;9.28;100.00;98160.84;5033070;28;20083;-76
2023/10/26 01:32:14;;;;;;;0.40;0.40;;;;;;;9.30;100.00;98164.13;5000300;28;20124;-76
2023/10/26 01:34:41;;;;;;;0.40;0.40;;;;;;;9.31;100.00;98157.69;5016743;28;20120;-76
2023/10/26 01:37:06;;;;;;;0.30;0.30;;;;;;;9.31;100.00;98154.22;5016705;28;20125;-76
2023/10/26 01:39:32;;;;;;;0.40;0.40;;;;;;;9.30;100.00;98156.06;5049651;28;20026;-76
2023/10/26 01:41:58;;;;;;;0.40;0.40;;;;;;;9.29;100.00;98154.47;5000348;28;20049;-76
2023/10/26 01:44:24;;;;;;;0.30;0.30;;;;;;;9.28;100.00;98154.69;5032458;28;20030;-76
2023/10/26 01:46:49;;;;;;;0.40;0.40;;;;;;;9.29;100.00;98151.78;5032699;28;20452;-76
2023/10/26 01:49:15;;;;;;;0.40;0.40;;;;;;;9.28;100.00;98144.75;5000253;28;20026;-76
2023/10/26 01:51:41;;;;;;;0.40;0.40;;;;;;;9.27;100.00;98139.66;5000100;28;20036;-76
2023/10/26 01:54:06;;;;;;;0.40;0.40;;;;;;;9.25;100.00;98132.63;5016564;28;20441;-76
2023/10/26 01:56:32;;;;;;;0.40;0.40;;;;;;;9.28;100.00;98136.72;5000607;28;20155;-76
2023/10/26 01:58:58;;;;;;;0.50;0.50;;;;;;;9.22;100.00;98122.38;5032685;28;20082;-76
2023/10/26 02:01:24;;;;;;;0.50;0.50;;;;;;;9.25;100.00;98132.63;5016361;28;20033;-76
2023/10/26 02:03:50;;;;;;;0.40;0.40;;;;;;;9.24;100.00;98132.88;5016268;28;20052;-76
2023/10/26 02:06:16;;;;;;;0.35;0.35;;;;;;;9.19;100.00;98127.41;5032283;28;20108;-76
2023/10/26 02:08:42;;;;;;;0.40;0.40;;;;;;;9.26;100.00;98138.81;4999946;28;20516;-76
2023/10/26 02:11:07;;;;;;;0.40;0.40;;;;;;;9.27;100.00;98137.78;5016114;28;20539;-76
2023/10/26 02:13:35;;;;;;;0.40;0.40;;;;;;;9.21;100.00;98131.47;5016549;28;20037;-76
2023/10/26 02:16:01;;;;;;;0.30;0.30;;;;;;;9.31;100.00;98135.44;5032586;28;20037;-76
2023/10/26 02:18:28;;;;;;;0.40;0.40;;;;;;;9.29;100.00;98135.69;5032189;28;20033;-76
2023/10/26 02:20:54;;;;;;;0.30;0.30;;;;;;;9.31;100.00;98135.44;5015735;28;20034;-76
2023/10/26 02:23:21;;;;;;;0.40;0.40;;;;;;;9.26;100.00;98122.72;5016071;28;20063;-76
2023/10/26 02:25:47;;;;;;;0.32;0.32;;;;;;;9.28;100.00;98134.03;5016307;28;20103;-76
2023/10/26 02:28:15;;;;;;;0.40;0.40;;;;;;;9.27;100.00;98131.59;4999725;28;20435;-75
2023/10/26 02:30:45;;;;;;;0.30;0.30;;;;;;;9.25;100.00;98119.22;5032407;28;20033;-76
2023/10/26 02:33:11;;;;;;;0.40;0.40;;;;;;;9.29;100.00;98122.28;5015780;28;20534;-76
2023/10/26 02:35:40;;;;;;;0.40;0.40;;;;;;;9.30;100.00;98121.22;5015564;28;20030;-76
2023/10/26 02:38:06;;;;;;;0.40;0.40;;;;;;;9.31;100.00;98112.13;5016193;28;20029;-76
2023/10/26 02:40:32;;;;;;;0.40;0.40;;;;;;;9.27;100.00;98108.28;4999696;28;20432;-76
2023/10/26 02:42:59;;;;;;;0.40;0.40;;;;;;;9.28;100.00;98109.09;5031930;28;20029;-76
2023/10/26 02:45:25;;;;;;;0.35;0.35;;;;;;;9.29;100.00;98108.03;5015880;28;20072;-76
2023/10/26 02:47:51;;;;;;;0.35;0.35;;;;;;;9.27;100.00;98104.78;5015893;28;20071;-76
2023/10/26 02:50:16;;;;;;;0.40;0.40;;;;;;;9.27;100.00;98102.91;5015680;28;20137;-76
2023/10/26 02:52:42;;;;;;;0.40;0.40;;;;;;;9.27;100.00;98097.56;5015681;28;20021;-76
2023/10/26 02:55:08;;;;;;;0.40;0.40;;;;;;;9.27;100.00;98094.06;5033151;28;20148;-76
2023/10/26 02:57:33;;;;;;;0.50;0.50;;;;;;;9.26;100.00;98093.22;5003213;28;20095;-76
2023/10/26 02:59:59;;;;;;;0.40;0.40;;;;;;;9.25;100.00;98088.91;5003205;28;20029;-76
2023/10/26 03:02:24;;;;;;;0.43;0.43;;;;;;;9.25;100.00;98089.72;5003199;28;20037;-76
2023/10/26 03:04:50;;;;;;;0.40;0.40;;;;;;;9.25;100.00;98076.31;5003210;28;20125;-76
2023/10/26 03:07:22;;;;;;;0.40;0.40;;;;;;;9.24;100.00;98077.38;5003123;28;20087;-76
2023/10/26 03:09:49;;;;;;;0.43;0.43;;;;;;;9.25;100.00;98070.97;5020950;28;20057;-76
2023/10/26 03:12:15;;;;;;;0.40;0.40;;;;;;;9.19;100.00;98061.19;5018981;28;20029;-76
2023/10/26 03:14:41;;;;;;;0.30;0.30;;;;;;;9.18;100.00;98054.19;5019255;28;20037;-76
2023/10/26 03:17:06;;;;;;;0.30;0.30;;;;;;;9.14;100.00;98054.88;5003021;28;20064;-76
2023/10/26 03:19:32;;;;;;;0.40;0.40;;;;;;;9.11;100.00;98050.00;5019208;28;20431;-76
2023/10/26 03:21:58;;;;;;;0.40;0.40;;;;;;;9.07;100.00;98040.78;5002871;28;20490;-76
2023/10/26 03:24:24;;;;;;;0.40;0.40;;;;;;;9.09;100.00;98042.16;5019225;28;20095;-76
2023/10/26 03:26:49;;;;;;;0.40;0.40;;;;;;;9.08;100.00;98045.09;5019048;28;20030;-76
2023/10/26 03:29:15;;;;;;;0.40;0.40;;;;;;;9.11;100.00;98050.00;5002750;28;20039;-76
2023/10/26 03:31:41;;;;;;;0.40;0.40;;;;;;;9.09;100.00;98038.69;5018920;28;20041;-76
2023/10/26 03:34:07;;;;;;;0.43;0.43;;;;;;;9.09;100.00;98042.16;5035217;28;20429;-76
2023/10/26 03:36:33;;;;;;;0.40;0.40;;;;;;;9.11;100.00;98037.41;5002554;28;20037;-75
2023/10/26 03:38:58;;;;;;;0.40;0.40;;;;;;;9.07;100.00;98036.22;5002618;28;20033;-76
2023/10/26 03:41:24;;;;;;;0.40;0.40;;;;;;;9.06;100.00;98042.66;5002535;28;20033;-76
2023/10/26 03:43:50;;;;;;;0.40;0.40;;;;;;;9.08;100.00;98039.75;5018796;28;20128;-76
2023/10/26 03:46:16;;;;;;;0.40;0.40;;;;;;;9.01;100.00;98029.13;5018736;28;20184;-76
2023/10/26 03:48:41;;;;;;;0.40;0.40;;;;;;;9.07;100.00;98033.53;5018640;28;20132;-76
2023/10/26 03:51:07;;;;;;;0.30;0.30;;;;;;;9.06;100.00;98031.91;5018649;28;20095;-76
2023/10/26 03:53:33;;;;;;;0.38;0.38;;;;;;;9.11;100.00;98036.59;5002014;28;20036;-76
2023/10/26 03:55:58;;;;;;;0.40;0.40;;;;;;;9.12;100.00;98033.66;5018682;28;20487;-75
2023/10/26 03:58:24;;;;;;;0.40;0.40;;;;;;;9.09;100.00;98022.59;5001926;28;20037;-76
2023/10/26 04:00:51;;;;;;;0.40;0.40;;;;;;;9.10;100.00;98024.22;5018405;28;20410;-76
2023/10/26 04:03:17;;;;;;;0.40;0.40;;;;;;;9.10;100.00;98030.41;5018159;28;20087;-76
2023/10/26 04:05:43;;;;;;;0.40;0.40;;;;;;;9.06;100.00;98021.19;5034388;28;20025;-76
2023/10/26 04:08:09;;;;;;;0.40;0.40;;;;;;;8.98;100.00;98017.00;5018213;28;20457;-76
2023/10/26 04:10:35;;;;;;;0.50;0.50;;;;;;;8.99;100.00;98026.66;5034564;28;20029;-76
2023/10/26 04:13:01;;;;;;;0.40;0.40;;;;;;;8.98;100.00;98014.31;4986478;28;20211;-76
2023/10/26 04:15:27;;;;;;;0.50;0.50;;;;;;;8.96;100.00;98012.91;5018174;28;20033;-76
2023/10/26 04:17:53;;;;;;;0.40;0.40;;;;;;;8.89;100.00;98007.69;5018126;28;20056;-76
2023/10/26 04:20:20;;;;;;;0.40;0.40;;;;;;;8.89;100.00;97998.81;5034252;28;20361;-76
2023/10/26 04:22:46;;;;;;;0.40;0.40;;;;;;;8.90;100.00;98006.63;5034280;28;20033;-76
2023/10/26 04:25:13;;;;;;;0.38;0.38;;;;;;;8.88;100.00;98003.34;5018155;28;20042;-76
2023/10/26 04:27:38;;;;;;;0.40;0.40;;;;;;;8.88;100.00;98002.56;5017935;28;20029;-75
2023/10/26 04:30:06;;;;;;;0.40;0.40;;;;;;;8.87;100.00;97992.91;5033952;28;20029;-76
2023/10/26 04:32:32;;;;;;;0.40;0.40;;;;;;;8.90;100.00;97997.78;5034122;28;20029;-76
2023/10/26 04:34:57;;;;;;;0.40;0.40;;;;;;;8.90;100.00;97993.22;5001508;28;20048;-76
2023/10/26 04:37:23;;;;;;;0.50;0.50;;;;;;;8.87;100.00;97992.91;5001549;28;20057;-76
2023/10/26 04:39:48;;;;;;;0.40;0.40;;;;;;;8.85;100.00;97984.25;5017291;28;20033;-75
2023/10/26 04:42:14;;;;;;;0.40;0.40;;;;;;;8.82;100.00;97984.72;5017706;28;20045;-76
2023/10/26 04:44:40;;;;;;;0.40;0.40;;;;;;;8.76;100.00;97989.16;5001265;28;20083;-76
2023/10/26 04:47:05;;;;;;;0.50;0.50;;;;;;;8.70;100.00;97988.19;5001182;28;20034;-76
2023/10/26 04:49:33;;;;;;;0.40;0.40;;;;;;;8.67;100.00;97983.31;5034019;28;20040;-76
2023/10/26 04:51:59;;;;;;;0.40;0.40;;;;;;;8.64;100.00;97983.78;5017685;28;20057;-76
2023/10/26 04:54:27;;;;;;;0.40;0.40;;;;;;;8.64;100.00;97983.78;5033649;28;20033;-76
2023/10/26 04:56:54;;;;;;;0.40;0.40;;;;;;;8.71;100.00;97981.00;5033849;28;20038;-76
2023/10/26 04:59:20;;;;;;;0.40;0.40;;;;;;;8.60;100.00;97987.97;5001559;28;20492;-76
2023/10/26 05:01:45;;;;;;;0.40;0.40;;;;;;;8.58;100.00;97985.50;5001008;28;20069;-76
2023/10/26 05:04:11;;;;;;;0.43;0.43;;;;;;;8.61;100.00;97981.56;5033656;28;20052;-76
2023/10/26 05:06:37;;;;;;;0.43;0.43;;;;;;;8.63;100.00;97981.34;5033467;28;20079;-76
2023/10/26 05:09:04;;;;;;;0.40;0.40;;;;;;;8.58;100.00;97974.00;5017188;28;20036;-76
2023/10/26 05:11:29;;;;;;;0.40;0.40;;;;;;;8.63;100.00;97976.00;5033591;28;20033;-76
2023/10/26 05:13:57;;;;;;;0.40;0.40;;;;;;;8.65;100.00;97980.03;5033271;28;20040;-76
2023/10/26 05:16:23;;;;;;;0.40;0.40;;;;;;;8.65;100.00;97976.53;5033093;28;20047;-76
2023/10/26 05:18:48;;;;;;;0.40;0.40;;;;;;;8.69;100.00;97975.88;5015977;28;20547;-77
2023/10/26 05:21:14;;;;;;;0.47;0.47;;;;;;;8.65;100.00;97973.88;5000596;28;20120;-76
2023/10/26 05:23:40;;;;;;;0.40;0.40;;;;;;;8.65;100.00;97973.88;5016933;28;20037;-76
2023/10/26 05:26:06;;;;;;;0.40;0.40;;;;;;;8.59;100.00;97971.06;5000539;28;20044;-76
2023/10/26 05:28:31;;;;;;;0.40;0.40;;;;;;;8.56;100.00;97976.88;5033054;28;20171;-76
2023/10/26 05:30:57;;;;;;;0.43;0.43;;;;;;;8.50;100.00;97977.00;4984297;28;20048;-76
2023/10/26 05:33:23;;;;;;;0.50;0.50;;;;;;;8.48;100.00;97966.53;5000271;28;20134;-76
2023/10/26 05:35:48;;;;;;;0.50;0.50;;;;;;;8.44;100.00;97968.03;5001245;28;20041;-76
2023/10/26 05:38:18;;;;;;;0.43;0.43;;;;;;;8.34;100.00;97968.56;5000359;28;20375;-76
2023/10/26 05:41:11;;;;;;;0.60;0.60;;;;;;;8.28;100.00;97964.13;5017251;28;20108;-76
2023/10/26 05:43:37;;;;;;;0.40;0.40;;;;;;;8.19;100.00;97965.50;5031929;28;20041;-76
2023/10/26 05:46:04;;;;;;;0.50;0.50;;;;;;;8.16;100.00;97960.59;5032458;28;20039;-76
2023/10/26 05:48:31;;;;;;;0.43;0.43;;;;;;;8.12;100.00;97965.59;5016441;28;20048;-76
2023/10/26 05:50:57;;;;;;;0.40;0.40;;;;;;;8.02;100.00;97960.00;5016620;28;20555;-76
2023/10/26 05:53:23;;;;;;;0.50;0.50;;;;;;;7.84;100.00;97966.19;4999892;28;20133;-76
2023/10/26 05:55:57;;;;;;;0.40;0.40;;;;;;;7.77;100.00;97962.78;5015942;28;20033;-76
2023/10/26 05:58:23;;;;;;;0.50;0.50;;;;;;;7.67;100.00;97966.03;5032577;28;20542;-76
2023/10/26 06:00:48;;;;;;;0.40;0.40;;;;;;;7.60;100.00;97953.78;4999992;28;20033;-76
2023/10/26 06:03:14;;;;;;;0.40;0.40;;;;;;;7.57;100.00;97957.72;5016298;28;20045;-76
2023/10/26 06:05:39;;;;;;;0.40;0.40;;;;;;;7.54;100.00;97952.81;5015814;28;20033;-76
2023/10/26 06:08:05;;;;;;;0.40;0.40;;;;;;;7.53;100.00;97953.03;4999916;28;20037;-76
2023/10/26 06:10:31;;;;;;;0.43;0.43;;;;;;;7.52;100.00;97949.53;5032153;28;20030;-76
2023/10/26 06:12:56;;;;;;;0.40;0.40;;;;;;;7.63;100.00;97946.09;5016077;28;20057;-77
2023/10/26 06:15:22;;;;;;;0.40;0.40;;;;;;;7.75;100.00;97935.44;5033611;28;20033;-76
2023/10/26 06:17:48;;;;;;;0.40;0.40;;;;;;;7.83;100.00;97937.81;5016215;28;20038;-76
2023/10/26 06:20:14;;;;;;;0.40;0.40;;;;;;;7.91;100.00;97934.84;5032031;28;20029;-76
2023/10/26 06:22:40;;;;;;;0.40;0.40;;;;;;;7.92;100.00;97936.44;5016100;28;20065;-76
2023/10/26 06:25:06;;;;;;;0.40;0.40;;;;;;;7.91;100.00;97932.16;4999855;28;20471;-76
2023/10/26 06:27:31;;;;;;;0.40;0.40;;;;;;;7.96;100.00;97923.41;5032304;28;20033;-76
2023/10/26 06:29:57;;;;;;;0.40;0.40;;;;;;;8.00;100.00;97929.97;5000274;28;20037;-76
2023/10/26 06:32:23;;;;;;;0.43;0.43;;;;;;;8.03;100.00;97934.84;5003577;28;20028;-76
2023/10/26 06:34:50;;;;;;;0.40;0.40;;;;;;;8.02;100.00;97929.72;5001964;28;20044;-76
2023/10/26 06:37:16;;;;;;;0.40;0.40;;;;;;;8.06;100.00;97923.69;5019410;28;20041;-76
2023/10/26 06:39:42;;;;;;;0.40;0.40;;;;;;;8.20;100.00;97932.31;5003392;28;20026;-76
2023/10/26 06:42:12;;;;;;;0.40;0.40;;;;;;;8.27;100.00;97925.00;5003692;28;20059;-77
2023/10/26 06:44:39;;;;;;;0.50;0.50;;;;;;;8.36;100.00;97931.69;5020068;28;20472;-76
2023/10/26 06:47:04;;;;;;;0.40;0.40;;;;;;;8.42;100.00;97926.47;5036073;28;20056;-76
2023/10/26 06:49:30;;;;;;;0.40;0.40;;;;;;;8.50;100.00;97934.16;5019747;28;20468;-76
2023/10/26 06:51:55;;;;;;;0.40;0.40;;;;;;;8.48;100.00;97915.63;5003139;28;20396;-76
2023/10/26 06:54:21;;;;;;;0.30;0.30;;;;;;;8.53;100.00;97929.16;5019688;28;20033;-76
2023/10/26 06:56:47;;;;;;;0.40;0.40;;;;;;;8.54;100.00;97922.75;5019695;28;20128;-76
2023/10/26 06:59:12;;;;;;;0.50;0.50;;;;;;;8.55;100.00;97920.91;5019303;28;20124;-76
2023/10/26 07:01:38;;;;;;;0.40;0.40;;;;;;;8.57;100.00;97924.13;5019263;28;20033;-76
2023/10/26 07:04:06;;;;;;;0.50;0.50;;;;;;;8.56;100.00;97922.53;5019544;28;20041;-76
2023/10/26 07:06:31;;;;;;;0.40;0.40;;;;;;;8.57;100.00;97914.25;5035745;28;20030;-76
2023/10/26 07:08:57;;;;;;;0.47;0.47;;;;;;;8.57;100.00;97918.78;5003150;28;20087;-76
2023/10/26 07:11:25;;;;;;;0.40;0.40;;;;;;;8.57;100.00;97908.91;5003081;28;20040;-76
2023/10/26 07:13:50;;;;;;;0.40;0.40;;;;;;;8.58;100.00;97915.06;5035898;28;20471;-75
2023/10/26 07:16:16;;;;;;;0.38;0.38;;;;;;;8.53;100.00;97907.72;5002804;28;20068;-76
2023/10/26 07:18:42;;;;;;;0.40;0.40;;;;;;;8.47;100.00;97914.03;5017943;28;20021;-76
2023/10/26 07:21:08;;;;;;;0.40;0.40;;;;;;;8.37;100.00;97903.84;5002840;28;20044;-76
2023/10/26 07:23:34;;;;;;;0.40;0.40;;;;;;;8.47;100.00;97915.88;5034996;28;20460;-76
2023/10/26 07:26:00;;;;;;;0.40;0.40;;;;;;;8.44;100.00;97911.81;5001522;28;20033;-76
2023/10/26 07:28:25;;;;;;;0.50;0.50;;;;;;;8.37;100.00;97917.22;5018412;28;20044;-76
2023/10/26 07:30:51;;;;;;;0.40;0.40;;;;;;;8.35;100.00;97910.47;5017804;28;20044;-76
2023/10/26 07:33:23;;;;;;;0.50;0.50;;;;;;;8.46;100.00;97916.91;5034009;28;20407;-76
2023/10/26 07:35:53;;;;;;;0.40;0.40;;;;;;;8.53;100.00;97907.72;5018470;28;20026;-76
2023/10/26 07:38:18;;;;;;;0.43;0.43;;;;;;;8.77;100.00;97916.56;5017806;28;20033;-76
2023/10/26 07:40:53;;;;;;;0.50;0.50;;;;;;;8.91;100.00;97919.81;5016934;28;20037;-76
2023/10/26 07:43:18;;;;;;;0.40;0.40;;;;;;;9.02;100.00;97910.97;5017220;28;20492;-76
2023/10/26 07:45:46;;;;;;;0.40;0.40;;;;;;;9.13;100.00;97917.38;5016026;28;20044;-76
2023/10/26 07:48:12;;;;;;;0.40;0.40;;;;;;;9.14;100.00;97920.84;5016776;28;20048;-76
2023/10/26 07:50:38;;;;;;;0.47;0.47;;;;;;;9.13;100.00;97912.00;5017545;28;20479;-76
2023/10/26 07:53:05;;;;;;;0.40;0.40;;;;;;;9.15;100.00;97922.47;5000300;28;20364;-76
2023/10/26 07:55:31;;;;;;;0.40;0.40;;;;;;;9.12;100.00;97910.34;5017435;28;20044;-76
2023/10/26 07:57:57;;;;;;;0.40;0.40;;;;;;;9.12;100.00;97913.03;5033831;28;20034;-75
2023/10/26 08:00:22;;;;;;;0.50;0.50;;;;;;;9.28;100.00;97921.41;5033860;28;20392;-76
2023/10/26 08:02:49;;;;;;;0.40;0.40;;;;;;;9.47;100.00;97912.13;5033474;28;20395;-76
2023/10/26 08:05:15;;;;;;;0.40;0.40;;;;;;;9.61;100.00;97912.69;5014871;28;20043;-76
2023/10/26 08:07:41;;;;;;;0.40;0.40;;;;;;;9.69;100.00;97909.63;5016951;28;20036;-76
2023/10/26 08:10:10;;;;;;;0.50;0.50;;;;;;;9.73;100.00;97910.75;5015597;28;20049;-76
2023/10/26 08:12:36;;;;;;;0.45;0.45;;;;;;;9.66;100.00;97905.53;5017477;28;20361;-76
2023/10/26 08:15:02;;;;;;;0.40;0.40;;;;;;;9.60;100.00;97905.66;5034674;28;20460;-76
2023/10/26 08:17:28;;;;;;;0.40;0.40;;;;;;;9.58;100.00;97905.09;5033568;28;20033;-76
2023/10/26 08:19:55;;;;;;;0.40;0.40;;;;;;;9.57;100.00;97906.97;5017235;28;20132;-77
2023/10/26 08:22:21;;;;;;;0.50;0.50;;;;;;;9.58;100.00;97910.44;5000770;28;20045;-77
2023/10/26 08:24:48;;;;;;;0.40;0.40;;;;;;;9.55;100.00;97914.47;4975210;28;1213837;-76
2023/10/26 08:27:14;;;;;;;0.50;0.50;;;;;;;9.48;100.00;97903.03;5001679;28;20041;-76
2023/10/26 08:29:39;;;;;;;0.45;0.45;;;;;;;9.49;100.00;97912.72;5034189;28;20044;-76
2023/10/26 08:32:05;;;;;;;0.40;0.40;;;;;;;9.51;100.00;97902.56;5001549;28;20029;-76
2023/10/26 08:34:31;;;;;;;0.50;0.50;;;;;;;9.55;100.00;97900.22;5031947;28;20484;-76
2023/10/26 08:37:02;;;;;;;0.50;0.50;;;;;;;9.63;100.00;97907.88;5017306;28;20037;-76
2023/10/26 08:39:27;;;;;;;0.50;0.50;;;;;;;9.67;100.00;97898.31;5035389;28;20029;-76
2023/10/26 08:41:57;;;;;;;0.43;0.43;;;;;;;9.74;100.00;97900.81;5034046;28;20029;-76
2023/10/26 08:44:25;;;;;;;0.40;0.40;;;;;;;9.75;100.00;97895.22;5018307;28;20094;-77
2023/10/26 08:46:51;;;;;;;0.40;0.40;;;;;;;9.75;100.00;97897.91;5017634;28;20029;-76
2023/10/26 08:49:18;;;;;;;0.40;0.40;;;;;;;9.72;100.00;97897.59;5000757;28;20033;-76
2023/10/26 08:51:44;;;;;;;0.40;0.40;;;;;;;9.70;100.00;97895.13;5000376;28;20040;-76
2023/10/26 08:54:09;;;;;;;0.40;0.40;;;;;;;9.71;100.00;97893.25;5032686;28;20033;-77
2023/10/26 08:56:35;;;;;;;0.50;0.50;;;;;;;9.73;100.00;97894.66;5033893;28;20087;-76
2023/10/26 08:59:03;;;;;;;0.50;0.50;;;;;;;9.81;100.00;97902.31;5033850;28;20487;-77
2023/10/26 09:01:29;;;;;;;0.40;0.40;;;;;;;9.87;100.00;97893.31;5034208;28;20049;-76
2023/10/26 09:03:54;;;;;;;0.40;0.40;;;;;;;9.94;100.00;97895.81;5001010;28;20068;-77
2023/10/26 09:06:20;;;;;;;0.40;0.40;;;;;;;10.00;100.00;97894.03;5017112;28;20079;-76
2023/10/26 09:09:00;;;;;;;0.30;0.30;;;;;;;9.98;100.00;97893.50;5018085;28;20037;-76
2023/10/26 09:11:26;;;;;;;0.40;0.40;;;;;;;9.92;100.00;97900.63;5017154;28;20021;-76
2023/10/26 09:13:52;;;;;;;0.50;0.50;;;;;;;10.13;100.00;97894.56;5016542;28;20037;-76
2023/10/26 09:16:18;;;;;;;0.47;0.47;;;;;;;10.68;100.00;97898.38;5033580;28;20495;-76
2023/10/26 09:18:50;;;;;;;0.40;0.40;;;;;;;10.67;100.00;97904.84;5033628;28;20088;-76
2023/10/26 09:21:16;;;;;;;0.55;0.55;;;;;;;10.63;100.00;97908.25;5000761;28;20037;-77
2023/10/26 09:23:42;;;;;;;0.50;0.50;;;;;;;10.75;100.00;97896.34;5016819;28;20037;-77
2023/10/26 09:26:09;;;;;;;0.47;0.47;;;;;;;10.99;100.00;97901.53;5016810;28;20036;-77
2023/10/26 09:28:55;;;;;;;0.40;0.40;;;;;;;11.81;100.00;97914.06;5016792;28;20435;-77
2023/10/26 09:31:22;;;;;;;0.50;0.50;;;;;;;13.01;100.00;97915.59;5032786;28;20056;-77
2023/10/26 09:33:48;;;;;;;0.50;0.50;;;;;;;12.77;100.00;97913.28;4984080;28;20060;-76
2023/10/26 09:36:16;;;;;;;0.40;0.40;;;;;;;12.34;100.00;97911.63;5000183;28;20065;-77
2023/10/26 09:38:44;;;;;;;0.40;0.40;;;;;;;12.22;100.00;97906.38;5000452;28;20033;-77
2023/10/26 09:41:15;;;;;;;0.40;0.40;;;;;;;12.66;100.00;97906.19;5000391;28;20033;-77
2023/10/26 09:43:42;;;;;;;0.40;0.40;;;;;;;12.66;100.00;97911.59;5032919;28;20099;-76
2023/10/26 09:46:08;;;;;;;0.50;0.50;;;;;;;12.59;100.00;97910.19;5032945;28;20029;-76
2023/10/26 09:48:34;;;;;;;0.40;0.40;;;;;;;12.73;100.00;97904.09;5000198;28;20034;-76
2023/10/26 09:51:00;;;;;;;0.60;0.60;;;;;;;13.51;100.00;97910.72;5016468;28;20129;-76
2023/10/26 09:53:31;;;;;;;0.60;0.60;;;;;;;14.91;100.00;97900.59;4999971;28;20033;-74
2023/10/26 09:55:57;;;;;;;0.43;0.43;;;;;;;15.19;100.00;97904.59;5032665;28;20472;-75
2023/10/26 09:58:25;;;;;;;0.40;0.40;;;;;;;15.01;100.00;97903.28;5016481;28;20025;-75
2023/10/26 10:00:51;;;;;;;0.40;0.40;;;;;;;15.26;100.00;97899.69;5016344;28;20076;-74
2023/10/26 10:03:17;;;;;;;0.60;0.60;;;;;;;14.67;100.00;97903.06;5033353;28;20115;-75
2023/10/26 10:05:45;;;;;;;0.50;0.50;;;;;;;15.17;100.00;97902.16;4999908;28;20041;-76
2023/10/26 10:08:11;;;;;;;0.40;0.40;;;;;;;15.06;100.00;97897.06;4999966;28;20037;-74
2023/10/26 10:11:17;;;;;;;0.47;0.47;;;;;;;14.43;100.00;97898.19;4999952;28;20033;-74
2023/10/26 10:13:43;;;;;;;0.40;0.40;;;;;;;14.19;100.00;97891.72;5000132;28;20040;-75
2023/10/26 10:16:33;;;;;;;0.40;0.40;;;;;;;13.84;100.00;97888.69;5016228;28;20112;-74
2023/10/26 10:19:19;;;;;;;0.40;0.40;;;;;;;13.76;100.00;97889.22;5033613;28;20030;-75
2023/10/26 10:21:46;;;;;;;0.55;0.55;;;;;;;14.37;100.00;97893.03;4999887;28;20089;-75
2023/10/26 10:24:42;;;;;;;0.50;0.50;;;;;;;14.68;100.00;97888.47;4999862;28;20095;-75
2023/10/26 10:27:13;;;;;;;0.50;0.50;;;;;;;14.24;100.00;97889.00;5032737;28;20105;-76
2023/10/26 10:29:39;;;;;;;0.45;0.45;;;;;;;13.55;100.00;97871.34;5000788;28;20037;-75
2023/10/26 10:32:05;;;;;;;0.60;0.60;;;;;;;13.84;100.00;97887.88;5015845;28;20034;-74
2023/10/26 10:34:42;;;;;;;0.50;0.50;;;;;;;14.33;100.00;97883.88;5032576;28;20048;-75
2023/10/26 10:37:15;;;;;;;0.40;0.40;;;;;;;14.65;100.00;97883.59;5031091;28;20230;-75
2023/10/26 10:40:12;;;;;;;0.50;0.50;;;;;;;14.72;100.00;97878.72;5031795;28;20030;-75
2023/10/26 10:42:39;;;;;;;0.50;0.50;;;;;;;14.38;100.00;97878.47;5015966;28;20079;-75
2023/10/26 10:45:12;;;;;;;0.50;0.50;;;;;;;14.83;100.00;97884.94;4983075;28;20041;-75
2023/10/26 10:47:42;;;;;;;0.40;0.40;;;;;;;14.37;100.00;97885.75;4999965;28;20423;-75
2023/10/26 10:50:27;;;;;;;0.43;0.43;;;;;;;14.15;100.00;97879.81;5032065;28;20038;-75
2023/10/26 10:52:54;;;;;;;0.50;0.50;;;;;;;13.97;100.00;97890.06;5015728;28;20022;-75
2023/10/26 10:55:24;;;;;;;0.40;0.40;;;;;;;13.77;100.00;97884.63;5032241;28;20087;-76
2023/10/26 10:57:53;;;;;;;0.40;0.40;;;;;;;13.54;100.00;97886.72;4999494;28;20045;-75
2023/10/26 11:00:20;;;;;;;0.45;0.45;;;;;;;13.47;100.00;97890.72;5033245;28;20083;-75
2023/10/26 11:02:49;;;;;;;0.40;0.40;;;;;;;13.56;100.00;97889.97;4999440;28;20037;-75
2023/10/26 11:05:18;;;;;;;0.60;0.60;;;;;;;13.58;100.00;97895.09;5031803;28;20597;-75
2023/10/26 11:07:44;;;;;;;0.50;0.50;;;;;;;13.53;100.00;97889.69;4999481;28;20095;-75
2023/10/26 11:10:10;;;;;;;0.40;0.40;;;;;;;13.41;100.00;97892.59;5032153;28;20407;-75
2023/10/26 11:12:36;;;;;;;0.40;0.40;;;;;;;13.33;100.00;97885.00;5015481;28;20040;-75
2023/10/26 11:15:03;;;;;;;0.47;0.47;;;;;;;13.30;100.00;97891.75;4999347;28;20033;-75
2023/10/26 11:17:31;;;;;;;0.45;0.45;;;;;;;13.49;100.00;97884.00;5035174;28;20131;-75
2023/10/26 11:19:57;;;;;;;0.50;0.50;;;;;;;13.73;100.00;97878.13;5035226;28;20111;-75
2023/10/26 11:22:23;;;;;;;0.65;0.65;;;;;;;13.92;100.00;97878.41;5019035;28;20464;-75
2023/10/26 11:24:49;;;;;;;0.50;0.50;;;;;;;14.03;100.00;97875.47;5019397;28;20041;-75
2023/10/26 11:27:16;;;;;;;0.40;0.40;;;;;;;14.17;100.00;97873.03;5019246;28;20026;-76
2023/10/26 11:29:44;;;;;;;0.50;0.50;;;;;;;14.31;100.00;97867.91;5002685;28;20063;-75
2023/10/26 11:32:18;;;;;;;0.40;0.40;;;;;;;14.25;100.00;97871.69;5019414;28;20064;-75